createdAt,value
2018-06-12T00:01:22.184Z,95.40
2018-06-12T00:03:50.367Z,95.50
2018-06-12T00:06:18.629Z,95.60
2018-06-12T00:08:46.908Z,95.70
2018-06-12T00:11:15.216Z,95.70
2018-06-12T00:13:43.412Z,95.70
2018-06-12T00:16:11.609Z,95.70
2018-06-12T00:18:40.017Z,95.90
2018-06-12T00:21:08.239Z,96.10
2018-06-12T00:23:36.430Z,96.00
2018-06-12T00:26:04.683Z,96.10
2018-06-12T00:28:32.960Z,96.00
2018-06-12T00:31:01.255Z,96.00
2018-06-12T00:33:29.520Z,96.00
2018-06-12T00:35:57.775Z,96.10
2018-06-12T00:38:25.961Z,96.10
2018-06-12T00:40:54.185Z,96.10
2018-06-12T00:43:22.425Z,96.10
2018-06-12T00:45:50.637Z,96.00
2018-06-12T00:48:18.828Z,96.10
2018-06-12T00:50:47.159Z,96.00
2018-06-12T00:53:15.420Z,96.00
2018-06-12T00:55:43.648Z,95.90
2018-06-12T00:58:11.870Z,95.70
2018-06-12T01:00:40.132Z,95.80
2018-06-12T01:03:08.322Z,96.00
2018-06-12T01:05:36.559Z,96.00
2018-06-12T01:08:04.768Z,96.00
2018-06-12T01:13:01.004Z,96.10
2018-06-12T01:15:29.200Z,95.90
2018-06-12T01:17:57.589Z,96.10
2018-06-12T01:20:25.787Z,95.90
2018-06-12T01:22:53.972Z,96.10
2018-06-12T01:25:22.142Z,96.20
2018-06-12T01:27:50.267Z,96.10
2018-06-12T01:30:18.497Z,96.10
2018-06-12T01:32:46.697Z,96.10
2018-06-12T01:35:14.864Z,96.10
2018-06-12T01:37:43.031Z,96.00
2018-06-12T01:40:11.188Z,96.00
2018-06-12T01:42:39.491Z,96.10
2018-06-12T01:45:07.691Z,96.20
2018-06-12T01:47:35.926Z,96.10
2018-06-12T01:50:04.297Z,96.10
2018-06-12T01:52:32.777Z,96.30
2018-06-12T01:55:00.987Z,96.30
2018-06-12T01:57:29.202Z,96.40
2018-06-12T01:59:57.370Z,96.40
2018-06-12T02:02:25.551Z,96.40
2018-06-12T02:04:53.754Z,96.60
2018-06-12T02:07:21.932Z,96.50
2018-06-12T02:09:50.162Z,96.80
2018-06-12T02:12:18.489Z,96.80
2018-06-12T02:14:46.824Z,96.60
2018-06-12T02:17:15.157Z,97.00
2018-06-12T02:19:43.492Z,96.50
2018-06-12T02:22:12.723Z,96.40
2018-06-12T02:24:40.932Z,96.60
2018-06-12T02:27:09.296Z,96.70
2018-06-12T02:29:37.708Z,96.70
2018-06-12T02:32:05.950Z,96.80
2018-06-12T02:34:34.263Z,96.80
2018-06-12T02:37:02.479Z,97.10
2018-06-12T02:39:30.692Z,96.90
2018-06-12T02:41:59.107Z,97.00
2018-06-12T02:44:30.567Z,97.10
2018-06-12T02:46:58.760Z,97.20
2018-06-12T02:49:26.987Z,97.10
2018-06-12T02:51:55.177Z,96.90
2018-06-12T02:54:23.356Z,96.60
2018-06-12T02:56:51.605Z,96.70
2018-06-12T02:59:19.929Z,96.70
2018-06-12T03:01:48.095Z,96.90
2018-06-12T03:04:16.380Z,97.00
2018-06-12T03:06:44.584Z,96.80
2018-06-12T03:09:12.815Z,96.80
2018-06-12T03:11:41.015Z,96.70
2018-06-12T03:14:09.388Z,96.70
2018-06-12T03:16:37.635Z,96.40
2018-06-12T03:19:06.072Z,96.30
2018-06-12T03:21:34.228Z,96.30
2018-06-12T03:26:30.564Z,96.20
2018-06-12T03:28:58.758Z,96.00
2018-06-12T03:31:26.968Z,96.10
2018-06-12T03:33:55.243Z,96.00
2018-06-12T03:36:23.492Z,95.90
2018-06-12T03:38:51.692Z,96.00
2018-06-12T03:41:20.099Z,95.90
2018-06-12T03:43:49.416Z,95.80
2018-06-12T03:46:18.571Z,95.80
2018-06-12T03:48:47.928Z,95.80
2018-06-12T03:51:16.334Z,95.80
2018-06-12T03:53:44.649Z,95.90
2018-06-12T03:56:12.993Z,95.60
2018-06-12T03:58:41.224Z,95.60
2018-06-12T04:01:09.547Z,95.70
2018-06-12T04:03:37.811Z,96.00
2018-06-12T04:06:06.160Z,95.90
2018-06-12T04:08:34.392Z,95.90
2018-06-12T04:11:02.629Z,95.90
2018-06-12T04:13:31.027Z,95.80
2018-06-12T04:15:59.420Z,95.90
2018-06-12T04:18:27.850Z,96.00
2018-06-12T04:20:56.805Z,96.20
2018-06-12T04:23:25.269Z,96.60
2018-06-12T04:25:53.621Z,96.80
2018-06-12T04:28:21.788Z,96.90
2018-06-12T04:30:50.527Z,97.00
2018-06-12T04:33:18.792Z,97.00
2018-06-12T04:35:47.024Z,97.00
2018-06-12T04:40:43.861Z,96.90
2018-06-12T04:43:12.143Z,96.90
2018-06-12T04:45:40.791Z,97.00
2018-06-12T04:48:09.119Z,96.90
2018-06-12T04:50:37.388Z,97.10
2018-06-12T04:55:33.893Z,97.10
2018-06-12T04:58:02.383Z,97.10
2018-06-12T05:00:30.798Z,97.10
2018-06-12T05:02:59.426Z,97.10
2018-06-12T05:05:27.901Z,97.10
2018-06-12T05:07:56.591Z,96.90
2018-06-12T05:10:25.038Z,97.50
2018-06-12T05:12:53.360Z,96.70
2018-06-12T05:15:21.682Z,96.70
2018-06-12T05:20:18.491Z,96.60
2018-06-12T05:22:47.801Z,96.80
2018-06-12T05:25:16.581Z,96.40
2018-06-12T05:27:44.797Z,96.10
2018-06-12T05:30:13.102Z,96.30
2018-06-12T05:35:41.965Z,96.40
2018-06-12T05:38:10.631Z,96.30
2018-06-12T05:40:39.552Z,96.50
2018-06-12T05:43:08.782Z,96.50
2018-06-12T05:45:40.945Z,96.50
2018-06-12T05:48:09.204Z,96.40
2018-06-12T05:50:38.177Z,96.60
2018-06-12T05:53:06.783Z,96.60
2018-06-12T05:55:35.140Z,96.50
2018-06-12T05:58:03.593Z,96.70
2018-06-12T06:00:32.575Z,96.80
2018-06-12T06:03:01.014Z,97.00
2018-06-12T06:05:33.699Z,96.80
2018-06-12T06:08:02.428Z,96.60
2018-06-12T06:10:31.331Z,96.80
2018-06-12T06:12:59.636Z,96.90
2018-06-12T06:15:29.342Z,96.90
2018-06-12T06:17:57.777Z,97.10
2018-06-12T06:20:25.996Z,96.70
2018-06-12T06:22:54.259Z,96.60
2018-06-12T06:25:22.445Z,96.80
2018-06-12T06:27:50.731Z,96.80
2018-06-12T06:30:19.120Z,96.60
2018-06-12T06:32:47.387Z,96.60
2018-06-12T06:37:43.496Z,96.40
2018-06-12T06:40:11.692Z,96.30
2018-06-12T06:42:39.997Z,96.40
2018-06-12T06:45:08.163Z,96.60
2018-06-12T06:47:36.547Z,96.90
2018-06-12T06:50:04.853Z,97.10
2018-06-12T06:52:33.081Z,97.30
2018-06-12T06:55:01.341Z,97.20
2018-06-12T06:57:29.605Z,97.20
2018-06-12T06:59:59.732Z,96.90
2018-06-12T07:02:28.843Z,97.00
2018-06-12T07:04:57.055Z,97.00
2018-06-12T07:07:25.571Z,96.80
2018-06-12T07:09:54.097Z,96.70
2018-06-12T07:12:22.281Z,96.30
2018-06-12T07:14:50.821Z,96.30
2018-06-12T07:17:19.034Z,96.40
2018-06-12T07:19:47.293Z,96.50
2018-06-12T07:22:17.081Z,96.60
2018-06-12T07:24:45.301Z,96.70
2018-06-12T07:27:13.594Z,96.80
2018-06-12T07:29:41.844Z,97.00
2018-06-12T07:32:10.112Z,96.70
2018-06-12T07:34:38.302Z,96.20
2018-06-12T07:37:06.446Z,96.30
2018-06-12T07:39:34.679Z,96.40
2018-06-12T07:42:02.928Z,96.50
2018-06-12T07:44:31.108Z,96.20
2018-06-12T07:46:59.494Z,96.30
2018-06-12T07:49:27.684Z,96.40
2018-06-12T07:51:55.856Z,96.50
2018-06-12T07:54:24.027Z,96.40
2018-06-12T07:56:52.207Z,96.10
2018-06-12T07:59:20.379Z,95.30
2018-06-12T08:01:48.581Z,95.30
2018-06-12T08:04:16.780Z,95.70
2018-06-12T08:06:44.959Z,95.90
2018-06-12T08:09:13.135Z,96.00
2018-06-12T08:11:41.318Z,96.00
2018-06-12T08:14:09.480Z,95.90
2018-06-12T08:16:37.703Z,95.80
2018-06-12T08:19:05.924Z,95.70
2018-06-12T08:21:34.148Z,95.50
2018-06-12T08:24:02.346Z,95.20
2018-06-12T08:26:31.130Z,95.10
2018-06-12T08:28:59.520Z,94.90
2018-06-12T08:31:28.498Z,95.10
2018-06-12T08:33:56.793Z,95.20
2018-06-12T08:36:25.094Z,95.00
2018-06-12T08:38:53.419Z,94.90
2018-06-12T08:41:21.776Z,94.60
2018-06-12T08:43:50.034Z,94.60
2018-06-12T08:46:18.272Z,94.50
2018-06-12T08:48:46.557Z,94.40
2018-06-12T08:51:14.828Z,94.30
2018-06-12T08:53:43.291Z,94.50
2018-06-12T08:56:11.534Z,94.90
2018-06-12T08:58:39.941Z,95.10
2018-06-12T09:01:08.425Z,95.00
2018-06-12T09:03:37.005Z,94.40
2018-06-12T09:06:05.413Z,94.00
2018-06-12T09:08:33.663Z,93.10
2018-06-12T09:11:01.981Z,93.30
2018-06-12T09:13:30.281Z,93.30
2018-06-12T09:15:58.527Z,93.50
2018-06-12T09:18:26.809Z,93.50
2018-06-12T09:20:55.173Z,93.80
2018-06-12T09:23:24.726Z,94.00
2018-06-12T09:25:52.985Z,94.10
2018-06-12T09:28:21.216Z,94.30
2018-06-12T09:30:49.469Z,94.60
2018-06-12T09:33:17.699Z,94.60
2018-06-12T09:35:45.914Z,94.70
2018-06-12T09:38:14.204Z,94.50
2018-06-12T09:40:42.544Z,94.60
2018-06-12T09:43:11.000Z,94.80
2018-06-12T09:45:39.302Z,94.80
2018-06-12T09:48:07.656Z,94.20
2018-06-12T09:50:35.890Z,93.60
2018-06-12T09:53:04.221Z,93.70
2018-06-12T09:55:32.483Z,93.60
2018-06-12T09:58:00.882Z,93.40
2018-06-12T10:00:34.441Z,93.20
2018-06-12T10:03:02.747Z,92.60
2018-06-12T10:05:32.247Z,92.60
2018-06-12T10:08:00.624Z,92.70
2018-06-12T10:10:28.912Z,93.00
2018-06-12T10:12:57.292Z,92.60
2018-06-12T10:15:25.633Z,92.10
2018-06-12T10:17:53.909Z,91.90
2018-06-12T10:20:22.290Z,91.60
2018-06-12T10:22:50.613Z,91.80
2018-06-12T10:25:18.970Z,91.60
2018-06-12T10:27:47.408Z,91.80
2018-06-12T10:30:15.657Z,91.80
2018-06-12T10:32:43.981Z,91.60
2018-06-12T10:35:12.189Z,91.90
2018-06-12T10:37:40.474Z,91.60
2018-06-12T10:40:08.777Z,91.50
2018-06-12T10:42:37.133Z,91.80
2018-06-12T10:45:05.667Z,91.90
2018-06-12T10:47:33.985Z,91.90
2018-06-12T10:50:02.444Z,91.90
2018-06-12T10:52:30.628Z,92.30
2018-06-12T10:54:59.509Z,92.70
2018-06-12T10:57:27.716Z,92.70
2018-06-12T10:59:56.188Z,92.70
2018-06-12T11:02:24.440Z,92.80
2018-06-12T11:04:52.643Z,92.40
2018-06-12T11:07:21.077Z,92.10
2018-06-12T11:09:49.445Z,92.30
2018-06-12T11:12:17.684Z,92.40
2018-06-12T11:14:45.916Z,92.30
2018-06-12T11:17:14.142Z,92.10
2018-06-12T11:19:42.424Z,91.80
2018-06-12T11:22:10.665Z,92.00
2018-06-12T11:24:38.867Z,91.80
2018-06-12T11:27:07.078Z,91.40
2018-06-12T11:29:35.333Z,91.50
2018-06-12T11:32:03.630Z,91.20
2018-06-12T11:34:31.840Z,91.10
2018-06-12T11:37:00.090Z,91.10
2018-06-12T11:39:28.476Z,91.20
2018-06-12T11:41:56.844Z,91.40
2018-06-12T11:44:25.184Z,91.30
2018-06-12T11:46:53.575Z,91.40
2018-06-12T11:49:21.902Z,91.60
2018-06-12T11:51:50.262Z,91.50
2018-06-12T11:54:18.612Z,91.50
2018-06-12T11:56:47.275Z,91.50
2018-06-12T11:59:15.807Z,91.40
2018-06-12T12:01:44.263Z,91.40
2018-06-12T12:04:15.296Z,91.40
2018-06-12T12:06:43.859Z,91.00
2018-06-12T12:09:12.188Z,90.70
2018-06-12T12:11:40.486Z,91.40
2018-06-12T12:14:08.709Z,91.50
2018-06-12T12:16:37.099Z,91.70
2018-06-12T12:19:05.405Z,91.50
2018-06-12T12:21:33.669Z,92.10
2018-06-12T12:24:01.951Z,92.20
2018-06-12T12:26:30.402Z,92.50
2018-06-12T12:28:58.812Z,92.90
2018-06-12T12:31:27.135Z,93.40
2018-06-12T12:33:55.410Z,93.60
2018-06-12T12:36:23.734Z,93.20
2018-06-12T12:38:52.129Z,92.90
2018-06-12T12:41:20.361Z,93.10
2018-06-12T12:43:48.693Z,93.10
2018-06-12T12:46:17.129Z,93.30
2018-06-12T12:48:45.453Z,93.30
2018-06-12T12:51:13.712Z,93.00
2018-06-12T12:53:41.937Z,93.00
2018-06-12T12:56:10.219Z,92.80
2018-06-12T12:58:38.596Z,92.90
2018-06-12T13:01:09.691Z,92.70
2018-06-12T13:03:38.014Z,91.40
2018-06-12T13:06:06.434Z,91.50
2018-06-12T13:08:34.729Z,91.80
2018-06-12T13:11:02.876Z,91.90
2018-06-12T13:13:31.130Z,92.10
2018-06-12T13:15:59.357Z,91.90
2018-06-12T13:18:27.617Z,92.30
2018-06-12T13:20:55.965Z,92.10
2018-06-12T13:23:24.320Z,92.30
2018-06-12T13:25:52.628Z,92.30
2018-06-12T13:28:20.901Z,92.80
2018-06-12T13:30:49.118Z,93.20
2018-06-12T13:33:17.327Z,93.40
2018-06-12T13:35:45.605Z,92.90
2018-06-12T13:38:13.929Z,92.80
2018-06-12T13:40:42.184Z,92.70
2018-06-12T13:43:10.448Z,92.70
2018-06-12T13:45:38.724Z,92.60
2018-06-12T13:48:06.946Z,92.50
2018-06-12T13:50:35.246Z,92.30
2018-06-12T13:53:03.525Z,92.50
2018-06-12T13:55:31.896Z,92.60
2018-06-12T13:58:00.895Z,92.00
2018-06-12T14:00:29.164Z,91.80
2018-06-12T14:02:57.460Z,91.60
2018-06-12T14:05:26.742Z,91.90
2018-06-12T14:07:55.086Z,92.00
2018-06-12T14:10:23.397Z,91.70
2018-06-12T14:12:51.665Z,91.90
2018-06-12T14:15:19.879Z,92.00
2018-06-12T14:17:48.122Z,92.00
2018-06-12T14:20:16.320Z,92.10
2018-06-12T14:22:44.542Z,92.40
2018-06-12T14:25:12.773Z,92.50
2018-06-12T14:27:40.979Z,92.70
2018-06-12T14:30:09.223Z,93.10
2018-06-12T14:32:37.520Z,93.30
2018-06-12T14:35:05.761Z,93.60
2018-06-12T14:37:34.003Z,93.70
2018-06-12T14:40:02.420Z,93.70
2018-06-12T14:42:30.790Z,93.60
2018-06-12T14:44:59.057Z,93.30
2018-06-12T14:47:27.296Z,93.30
2018-06-12T14:49:55.550Z,93.20
2018-06-12T14:52:23.777Z,93.10
2018-06-12T14:54:51.992Z,93.00
2018-06-12T14:57:20.307Z,93.30
2018-06-12T14:59:48.512Z,93.40
2018-06-12T15:02:16.772Z,93.30
2018-06-12T15:04:44.987Z,93.50
2018-06-12T15:07:13.241Z,93.70
2018-06-12T15:09:41.456Z,93.80
2018-06-12T15:12:09.718Z,93.60
2018-06-12T15:14:38.003Z,93.50
2018-06-12T15:17:06.242Z,93.00
2018-06-12T15:19:34.461Z,93.00
2018-06-12T15:22:02.680Z,93.20
2018-06-12T15:24:30.902Z,93.10
2018-06-12T15:26:59.244Z,93.30
2018-06-12T15:29:27.453Z,93.20
2018-06-12T15:31:55.760Z,93.40
2018-06-12T15:34:24.006Z,93.50
2018-06-12T15:36:52.223Z,93.30
2018-06-12T15:39:20.584Z,93.30
2018-06-12T15:41:49.006Z,93.20
2018-06-12T15:44:17.360Z,93.10
2018-06-12T15:46:45.928Z,93.00
2018-06-12T15:49:14.303Z,93.10
2018-06-12T15:51:42.535Z,92.40
2018-06-12T15:54:10.857Z,92.40
2018-06-12T15:56:39.410Z,92.60
2018-06-12T15:59:07.815Z,92.90
2018-06-12T16:01:36.135Z,92.90
2018-06-12T16:04:07.792Z,92.70
2018-06-12T16:06:36.781Z,93.30
2018-06-12T16:09:07.812Z,93.50
2018-06-12T16:11:36.152Z,93.60
2018-06-12T16:14:04.444Z,93.80
2018-06-12T16:16:32.728Z,94.00
2018-06-12T16:19:01.227Z,94.20
2018-06-12T16:21:29.651Z,94.20
2018-06-12T16:23:58.007Z,94.40
2018-06-12T16:26:26.238Z,94.40
2018-06-12T16:28:54.421Z,94.60
2018-06-12T16:31:22.639Z,94.70
2018-06-12T16:33:50.905Z,94.90
2018-06-12T16:36:19.252Z,95.10
2018-06-12T16:38:47.593Z,95.10
2018-06-12T16:41:15.908Z,95.10
2018-06-12T16:43:44.100Z,95.10
2018-06-12T16:46:12.464Z,94.90
2018-06-12T16:48:40.890Z,94.10
2018-06-12T16:51:09.219Z,94.00
2018-06-12T16:53:38.294Z,94.20
2018-06-12T16:56:06.745Z,94.20
2018-06-12T16:58:34.973Z,94.50
2018-06-12T17:01:03.286Z,94.80
2018-06-12T17:03:32.978Z,95.20
2018-06-12T17:06:07.031Z,95.60
2018-06-12T17:08:36.305Z,95.60
2018-06-12T17:11:05.426Z,96.00
2018-06-12T17:13:36.739Z,96.10
2018-06-12T17:16:04.964Z,96.30
2018-06-12T17:18:33.244Z,96.40
2018-06-12T17:21:02.216Z,96.60
2018-06-12T17:23:30.441Z,96.70
2018-06-12T17:25:59.361Z,96.70
2018-06-12T17:28:27.536Z,96.70
2018-06-12T17:30:55.842Z,96.80
2018-06-12T17:33:24.054Z,96.90
2018-06-12T17:35:52.238Z,97.10
2018-06-12T17:38:20.424Z,97.20
2018-06-12T17:40:48.716Z,97.20
2018-06-12T17:43:16.881Z,97.30
2018-06-12T17:45:45.209Z,97.30
2018-06-12T17:48:13.607Z,97.30
2018-06-12T17:50:42.591Z,97.30
2018-06-12T17:53:10.910Z,97.20
2018-06-12T17:55:39.156Z,97.40
2018-06-12T17:58:08.166Z,97.50
2018-06-12T18:00:36.705Z,97.50
2018-06-12T18:03:05.122Z,97.70
2018-06-12T18:05:33.452Z,97.80
2018-06-12T18:08:03.765Z,98.00
2018-06-12T18:10:34.658Z,98.00
2018-06-12T18:13:04.240Z,97.90
2018-06-12T18:15:32.540Z,98.00
2018-06-12T18:18:01.905Z,98.30
2018-06-12T18:20:30.987Z,98.40
2018-06-12T18:22:59.591Z,98.70
2018-06-12T18:25:27.957Z,98.90
2018-06-12T18:27:56.238Z,99.00
2018-06-12T18:30:25.571Z,99.20
2018-06-12T18:32:53.915Z,99.70
2018-06-12T18:35:27.672Z,99.80
2018-06-12T18:37:56.278Z,99.90
2018-06-12T18:40:24.928Z,99.90
2018-06-12T18:42:53.251Z,99.90
2018-06-12T18:45:21.873Z,99.70
2018-06-12T18:47:50.477Z,99.30
2018-06-12T18:50:19.009Z,99.10
2018-06-12T18:52:47.248Z,98.80
2018-06-12T18:55:15.570Z,98.50
2018-06-12T18:57:44.023Z,97.90
2018-06-12T19:00:12.378Z,97.60
2018-06-12T19:05:31.351Z,97.50
2018-06-12T19:10:27.635Z,97.40
2018-06-12T19:13:00.116Z,97.50
2018-06-12T19:15:28.350Z,97.70
2018-06-12T19:17:56.570Z,97.80
2018-06-12T19:20:24.784Z,97.90
2018-06-12T19:22:53.924Z,97.90
2018-06-12T19:25:22.151Z,98.00
2018-06-12T19:27:50.532Z,97.90
2018-06-12T19:30:18.713Z,97.80
2018-06-12T19:32:47.039Z,97.60
2018-06-12T19:35:15.246Z,97.50
2018-06-12T19:37:43.399Z,97.20
2018-06-12T19:40:11.606Z,97.20
2018-06-12T19:42:39.824Z,97.10
2018-06-12T19:45:08.044Z,97.10
2018-06-12T19:47:36.257Z,96.80
2018-06-12T19:50:04.452Z,96.70
2018-06-12T19:52:32.870Z,96.40
2018-06-12T19:55:01.114Z,96.50
2018-06-12T19:57:29.269Z,96.60
2018-06-12T19:59:57.501Z,96.50
2018-06-12T20:02:25.994Z,96.50
2018-06-12T20:04:54.183Z,96.50
2018-06-12T20:07:22.596Z,96.60
2018-06-12T20:09:50.770Z,96.70
2018-06-12T20:12:19.057Z,96.70
2018-06-12T20:14:47.416Z,96.70
2018-06-12T20:17:15.732Z,96.80
2018-06-12T20:19:44.597Z,96.70
2018-06-12T20:22:12.757Z,96.70
2018-06-12T20:24:40.980Z,96.80
2018-06-12T20:27:09.190Z,96.70
2018-06-12T20:29:37.587Z,96.70
2018-06-12T20:32:06.744Z,96.60
2018-06-12T20:34:34.913Z,96.60
2018-06-12T20:37:03.088Z,96.70
2018-06-12T20:39:31.223Z,96.60
2018-06-12T20:41:59.376Z,96.60
2018-06-12T20:44:27.560Z,96.60
2018-06-12T20:46:55.964Z,96.50
2018-06-12T20:49:24.202Z,96.50
2018-06-12T20:51:52.408Z,96.50
2018-06-12T20:54:20.595Z,96.50
2018-06-12T20:56:48.761Z,96.50
2018-06-12T20:59:16.929Z,96.60
2018-06-12T21:01:45.105Z,96.60
2018-06-12T21:04:13.300Z,96.60
2018-06-12T21:06:41.448Z,96.80
2018-06-12T21:09:10.256Z,96.80
2018-06-12T21:11:38.441Z,97.10
2018-06-12T21:14:06.684Z,97.20
2018-06-12T21:16:34.880Z,97.30
2018-06-12T21:19:03.086Z,97.30
2018-06-12T21:21:31.268Z,97.40
2018-06-12T21:23:59.449Z,97.60
2018-06-12T21:26:27.690Z,97.70
2018-06-12T21:28:55.860Z,98.00
2018-06-12T21:31:24.107Z,98.20
2018-06-12T21:33:52.292Z,98.70
2018-06-12T21:36:20.440Z,99.20
2018-06-12T21:38:48.950Z,99.90
2018-06-12T21:41:17.081Z,99.90
2018-06-12T21:43:45.264Z,99.90
2018-06-12T21:46:13.411Z,99.90
2018-06-12T21:48:41.534Z,99.90
2018-06-12T21:51:09.652Z,99.90
2018-06-12T21:53:37.847Z,99.90
2018-06-12T21:56:05.987Z,99.90
2018-06-12T21:58:34.145Z,99.90
2018-06-12T22:01:02.387Z,99.90
2018-06-12T22:03:30.549Z,99.90
2018-06-12T22:05:58.740Z,99.90
2018-06-12T22:08:26.944Z,99.90
2018-06-12T22:10:55.104Z,99.90
2018-06-12T22:13:23.282Z,99.90
2018-06-12T22:15:51.469Z,99.90
2018-06-12T22:18:19.643Z,99.90
2018-06-12T22:20:47.836Z,99.90
2018-06-12T22:23:15.992Z,99.90
2018-06-12T22:25:44.206Z,99.90
2018-06-12T22:28:12.395Z,99.90
2018-06-12T22:30:40.564Z,99.90
2018-06-12T22:33:08.687Z,99.90
2018-06-12T22:35:36.810Z,99.90
2018-06-12T22:38:05.041Z,99.90
2018-06-12T22:40:33.263Z,99.90
2018-06-12T22:43:01.647Z,99.90
2018-06-12T22:45:29.783Z,99.90
2018-06-12T22:47:57.984Z,99.90
2018-06-12T22:50:26.162Z,99.90
2018-06-12T22:52:54.349Z,99.90
2018-06-12T22:55:22.511Z,99.90
2018-06-12T22:57:50.734Z,99.90
2018-06-12T23:00:20.557Z,99.90
2018-06-12T23:02:48.748Z,99.90
2018-06-12T23:05:16.928Z,99.90
2018-06-12T23:07:45.161Z,99.90
2018-06-12T23:10:13.315Z,99.90
2018-06-12T23:12:41.520Z,99.90
2018-06-12T23:15:09.729Z,99.90
2018-06-12T23:17:37.955Z,99.90
2018-06-12T23:20:17.330Z,99.90
2018-06-12T23:22:45.512Z,99.90
2018-06-12T23:25:13.686Z,99.90
2018-06-12T23:27:41.879Z,99.90
2018-06-12T23:30:10.074Z,99.90
2018-06-12T23:32:38.498Z,99.90
2018-06-12T23:35:06.697Z,99.90
2018-06-12T23:37:34.955Z,99.90
2018-06-12T23:40:03.247Z,99.90
2018-06-12T23:42:31.609Z,99.90
2018-06-12T23:45:00.220Z,99.90
2018-06-12T23:47:29.163Z,99.90
2018-06-12T23:49:58.022Z,99.90
2018-06-12T23:52:26.417Z,99.90
2018-06-12T23:54:55.235Z,99.90
2018-06-12T23:57:23.462Z,99.90
2018-06-12T23:59:51.635Z,99.90
